sensor_id;sensor_type;location;lat;lon;timestamp;P1;durP1;ratioP1;P2;durP2;ratioP2
69837;SDS011;57135;51.992;4.476;2023-07-29T00:00:44;2.55;;;2.39;;
69837;SDS011;57135;51.992;4.476;2023-07-29T00:03:10;2.63;;;2.45;;
69837;SDS011;57135;51.992;4.476;2023-07-29T00:05:39;2.55;;;2.36;;
69837;SDS011;57135;51.992;4.476;2023-07-29T00:08:04;2.56;;;2.40;;
69837;SDS011;57135;51.992;4.476;2023-07-29T00:10:31;2.68;;;2.53;;
69837;SDS011;57135;51.992;4.476;2023-07-29T00:12:57;2.46;;;2.30;;
69837;SDS011;57135;51.992;4.476;2023-07-29T00:15:23;2.46;;;2.32;;
69837;SDS011;57135;51.992;4.476;2023-07-29T00:17:48;2.37;;;2.27;;
69837;SDS011;57135;51.992;4.476;2023-07-29T00:20:13;2.43;;;2.32;;
69837;SDS011;57135;51.992;4.476;2023-07-29T00:22:40;2.72;;;2.55;;
69837;SDS011;57135;51.992;4.476;2023-07-29T00:25:05;2.67;;;2.52;;
69837;SDS011;57135;51.992;4.476;2023-07-29T00:27:31;2.55;;;2.40;;
69837;SDS011;57135;51.992;4.476;2023-07-29T00:29:57;2.61;;;2.43;;
69837;SDS011;57135;51.992;4.476;2023-07-29T00:32:22;2.72;;;2.54;;
69837;SDS011;57135;51.992;4.476;2023-07-29T00:34:48;2.77;;;2.63;;
69837;SDS011;57135;51.992;4.476;2023-07-29T00:37:13;2.60;;;2.52;;
69837;SDS011;57135;51.992;4.476;2023-07-29T00:39:38;2.75;;;2.68;;
69837;SDS011;57135;51.992;4.476;2023-07-29T00:42:04;2.66;;;2.58;;
69837;SDS011;57135;51.992;4.476;2023-07-29T00:44:30;2.66;;;2.57;;
69837;SDS011;57135;51.992;4.476;2023-07-29T00:46:56;2.59;;;2.51;;
69837;SDS011;57135;51.992;4.476;2023-07-29T00:49:22;2.51;;;2.46;;
69837;SDS011;57135;51.992;4.476;2023-07-29T00:51:48;2.73;;;2.69;;
69837;SDS011;57135;51.992;4.476;2023-07-29T00:54:13;2.70;;;2.66;;
69837;SDS011;57135;51.992;4.476;2023-07-29T00:56:39;2.72;;;2.67;;
69837;SDS011;57135;51.992;4.476;2023-07-29T00:59:05;2.81;;;2.73;;
69837;SDS011;57135;51.992;4.476;2023-07-29T01:01:31;2.73;;;2.68;;
69837;SDS011;57135;51.992;4.476;2023-07-29T01:03:56;3.01;;;2.96;;
69837;SDS011;57135;51.992;4.476;2023-07-29T01:06:41;2.58;;;2.53;;
69837;SDS011;57135;51.992;4.476;2023-07-29T01:17:43;2.64;;;2.60;;
69837;SDS011;57135;51.992;4.476;2023-07-29T01:20:15;2.77;;;2.69;;
69837;SDS011;57135;51.992;4.476;2023-07-29T01:22:42;2.63;;;2.57;;
69837;SDS011;57135;51.992;4.476;2023-07-29T01:25:08;2.68;;;2.63;;
69837;SDS011;57135;51.992;4.476;2023-07-29T01:27:33;2.56;;;2.50;;
69837;SDS011;57135;51.992;4.476;2023-07-29T01:29:59;2.65;;;2.59;;
69837;SDS011;57135;51.992;4.476;2023-07-29T01:35:03;2.55;;;2.51;;
69837;SDS011;57135;51.992;4.476;2023-07-29T01:37:41;2.62;;;2.57;;
69837;SDS011;57135;51.992;4.476;2023-07-29T01:40:08;2.90;;;2.84;;
69837;SDS011;57135;51.992;4.476;2023-07-29T01:42:35;3.02;;;2.93;;
69837;SDS011;57135;51.992;4.476;2023-07-29T01:45:02;2.71;;;2.65;;
69837;SDS011;57135;51.992;4.476;2023-07-29T01:47:27;2.76;;;2.69;;
69837;SDS011;57135;51.992;4.476;2023-07-29T01:49:53;2.65;;;2.59;;
69837;SDS011;57135;51.992;4.476;2023-07-29T01:52:18;2.84;;;2.79;;
69837;SDS011;57135;51.992;4.476;2023-07-29T01:54:44;2.75;;;2.70;;
69837;SDS011;57135;51.992;4.476;2023-07-29T01:57:09;2.76;;;2.71;;
69837;SDS011;57135;51.992;4.476;2023-07-29T01:59:35;2.77;;;2.72;;
69837;SDS011;57135;51.992;4.476;2023-07-29T02:02:00;2.84;;;2.78;;
69837;SDS011;57135;51.992;4.476;2023-07-29T02:04:26;2.82;;;2.79;;
69837;SDS011;57135;51.992;4.476;2023-07-29T02:06:51;2.63;;;2.61;;
69837;SDS011;57135;51.992;4.476;2023-07-29T02:09:16;2.87;;;2.84;;
69837;SDS011;57135;51.992;4.476;2023-07-29T02:11:42;3.19;;;3.15;;
69837;SDS011;57135;51.992;4.476;2023-07-29T02:14:07;3.18;;;3.12;;
69837;SDS011;57135;51.992;4.476;2023-07-29T02:16:33;3.20;;;3.15;;
69837;SDS011;57135;51.992;4.476;2023-07-29T02:18:59;3.05;;;3.00;;
69837;SDS011;57135;51.992;4.476;2023-07-29T02:21:25;3.04;;;2.96;;
69837;SDS011;57135;51.992;4.476;2023-07-29T02:23:50;3.01;;;2.95;;
69837;SDS011;57135;51.992;4.476;2023-07-29T02:26:16;3.15;;;3.08;;
69837;SDS011;57135;51.992;4.476;2023-07-29T02:28:42;3.04;;;2.98;;
69837;SDS011;57135;51.992;4.476;2023-07-29T02:31:17;2.92;;;2.88;;
69837;SDS011;57135;51.992;4.476;2023-07-29T02:33:46;3.05;;;3.00;;
69837;SDS011;57135;51.992;4.476;2023-07-29T02:36:12;3.11;;;3.07;;
69837;SDS011;57135;51.992;4.476;2023-07-29T02:38:38;3.00;;;2.96;;
69837;SDS011;57135;51.992;4.476;2023-07-29T02:41:05;3.02;;;2.98;;
69837;SDS011;57135;51.992;4.476;2023-07-29T02:43:30;3.20;;;3.15;;
69837;SDS011;57135;51.992;4.476;2023-07-29T02:45:56;3.02;;;3.00;;
69837;SDS011;57135;51.992;4.476;2023-07-29T02:48:21;3.07;;;3.01;;
69837;SDS011;57135;51.992;4.476;2023-07-29T02:50:46;3.08;;;3.03;;
69837;SDS011;57135;51.992;4.476;2023-07-29T02:53:12;3.05;;;2.98;;
69837;SDS011;57135;51.992;4.476;2023-07-29T02:55:40;3.23;;;3.14;;
69837;SDS011;57135;51.992;4.476;2023-07-29T02:58:06;3.38;;;3.26;;
69837;SDS011;57135;51.992;4.476;2023-07-29T03:00:32;3.44;;;3.31;;
69837;SDS011;57135;51.992;4.476;2023-07-29T03:02:58;3.21;;;3.10;;
69837;SDS011;57135;51.992;4.476;2023-07-29T03:05:24;3.45;;;3.34;;
69837;SDS011;57135;51.992;4.476;2023-07-29T03:07:49;3.51;;;3.43;;
69837;SDS011;57135;51.992;4.476;2023-07-29T03:10:15;3.49;;;3.40;;
69837;SDS011;57135;51.992;4.476;2023-07-29T03:12:40;3.25;;;3.19;;
69837;SDS011;57135;51.992;4.476;2023-07-29T03:15:06;3.33;;;3.28;;
69837;SDS011;57135;51.992;4.476;2023-07-29T03:17:32;3.33;;;3.29;;
69837;SDS011;57135;51.992;4.476;2023-07-29T03:19:57;3.53;;;3.44;;
69837;SDS011;57135;51.992;4.476;2023-07-29T03:22:23;3.64;;;3.55;;
69837;SDS011;57135;51.992;4.476;2023-07-29T03:24:48;3.49;;;3.45;;
69837;SDS011;57135;51.992;4.476;2023-07-29T03:27:14;3.71;;;3.69;;
69837;SDS011;57135;51.992;4.476;2023-07-29T03:29:41;3.43;;;3.37;;
69837;SDS011;57135;51.992;4.476;2023-07-29T03:32:06;3.51;;;3.44;;
69837;SDS011;57135;51.992;4.476;2023-07-29T03:34:32;3.95;;;3.89;;
69837;SDS011;57135;51.992;4.476;2023-07-29T03:36:58;3.96;;;3.92;;
69837;SDS011;57135;51.992;4.476;2023-07-29T03:39:24;3.80;;;3.75;;
69837;SDS011;57135;51.992;4.476;2023-07-29T03:41:50;3.96;;;3.90;;
69837;SDS011;57135;51.992;4.476;2023-07-29T03:44:15;3.98;;;3.90;;
69837;SDS011;57135;51.992;4.476;2023-07-29T03:46:41;4.16;;;4.03;;
69837;SDS011;57135;51.992;4.476;2023-07-29T03:49:06;4.33;;;4.18;;
69837;SDS011;57135;51.992;4.476;2023-07-29T03:51:31;4.10;;;4.00;;
69837;SDS011;57135;51.992;4.476;2023-07-29T03:53:57;4.43;;;4.35;;
69837;SDS011;57135;51.992;4.476;2023-07-29T03:56:22;4.86;;;4.72;;
69837;SDS011;57135;51.992;4.476;2023-07-29T03:58:48;4.95;;;4.82;;
69837;SDS011;57135;51.992;4.476;2023-07-29T04:01:14;5.04;;;4.93;;
69837;SDS011;57135;51.992;4.476;2023-07-29T04:03:40;5.27;;;5.12;;
69837;SDS011;57135;51.992;4.476;2023-07-29T04:06:05;5.44;;;5.24;;
69837;SDS011;57135;51.992;4.476;2023-07-29T04:08:31;4.96;;;4.80;;
69837;SDS011;57135;51.992;4.476;2023-07-29T04:10:57;5.39;;;5.27;;
69837;SDS011;57135;51.992;4.476;2023-07-29T04:13:22;6.03;;;5.84;;
69837;SDS011;57135;51.992;4.476;2023-07-29T04:15:48;5.30;;;5.15;;
69837;SDS011;57135;51.992;4.476;2023-07-29T04:18:13;5.49;;;5.27;;
69837;SDS011;57135;51.992;4.476;2023-07-29T04:20:39;5.34;;;5.16;;
69837;SDS011;57135;51.992;4.476;2023-07-29T04:23:04;5.18;;;5.01;;
69837;SDS011;57135;51.992;4.476;2023-07-29T04:25:30;5.92;;;5.64;;
69837;SDS011;57135;51.992;4.476;2023-07-29T04:27:55;5.99;;;5.82;;
69837;SDS011;57135;51.992;4.476;2023-07-29T04:30:22;5.76;;;5.66;;
69837;SDS011;57135;51.992;4.476;2023-07-29T04:32:48;5.35;;;5.26;;
69837;SDS011;57135;51.992;4.476;2023-07-29T04:35:13;5.97;;;5.91;;
69837;SDS011;57135;51.992;4.476;2023-07-29T04:37:39;6.22;;;6.12;;
69837;SDS011;57135;51.992;4.476;2023-07-29T04:40:05;6.22;;;6.15;;
69837;SDS011;57135;51.992;4.476;2023-07-29T04:42:31;6.06;;;6.01;;
69837;SDS011;57135;51.992;4.476;2023-07-29T04:44:57;6.79;;;6.68;;
69837;SDS011;57135;51.992;4.476;2023-07-29T04:47:23;6.20;;;6.14;;
69837;SDS011;57135;51.992;4.476;2023-07-29T04:49:48;6.08;;;5.97;;
69837;SDS011;57135;51.992;4.476;2023-07-29T04:52:14;5.91;;;5.84;;
69837;SDS011;57135;51.992;4.476;2023-07-29T04:54:40;6.02;;;5.94;;
69837;SDS011;57135;51.992;4.476;2023-07-29T04:57:06;6.28;;;6.20;;
69837;SDS011;57135;51.992;4.476;2023-07-29T04:59:31;6.30;;;6.22;;
69837;SDS011;57135;51.992;4.476;2023-07-29T05:01:57;6.21;;;6.11;;
69837;SDS011;57135;51.992;4.476;2023-07-29T05:04:22;6.20;;;6.01;;
69837;SDS011;57135;51.992;4.476;2023-07-29T05:06:48;6.41;;;6.26;;
69837;SDS011;57135;51.992;4.476;2023-07-29T05:09:15;6.24;;;6.13;;
69837;SDS011;57135;51.992;4.476;2023-07-29T05:11:42;6.49;;;6.33;;
69837;SDS011;57135;51.992;4.476;2023-07-29T05:14:09;6.15;;;6.07;;
69837;SDS011;57135;51.992;4.476;2023-07-29T05:16:35;6.33;;;6.23;;
69837;SDS011;57135;51.992;4.476;2023-07-29T05:19:00;6.25;;;6.18;;
69837;SDS011;57135;51.992;4.476;2023-07-29T05:21:26;6.38;;;6.28;;
69837;SDS011;57135;51.992;4.476;2023-07-29T05:23:51;6.74;;;6.65;;
69837;SDS011;57135;51.992;4.476;2023-07-29T05:26:17;6.61;;;6.54;;
69837;SDS011;57135;51.992;4.476;2023-07-29T05:28:42;6.86;;;6.79;;
69837;SDS011;57135;51.992;4.476;2023-07-29T05:31:07;6.40;;;6.34;;
69837;SDS011;57135;51.992;4.476;2023-07-29T05:33:33;6.64;;;6.55;;
69837;SDS011;57135;51.992;4.476;2023-07-29T05:35:58;6.70;;;6.58;;
69837;SDS011;57135;51.992;4.476;2023-07-29T05:38:24;6.11;;;6.08;;
69837;SDS011;57135;51.992;4.476;2023-07-29T05:40:50;6.04;;;6.01;;
69837;SDS011;57135;51.992;4.476;2023-07-29T05:43:16;6.29;;;6.22;;
69837;SDS011;57135;51.992;4.476;2023-07-29T05:45:41;5.95;;;5.84;;
69837;SDS011;57135;51.992;4.476;2023-07-29T05:48:07;5.65;;;5.59;;
69837;SDS011;57135;51.992;4.476;2023-07-29T05:50:32;5.68;;;5.57;;
69837;SDS011;57135;51.992;4.476;2023-07-29T05:52:57;5.68;;;5.58;;
69837;SDS011;57135;51.992;4.476;2023-07-29T05:55:23;5.70;;;5.59;;
69837;SDS011;57135;51.992;4.476;2023-07-29T05:57:48;5.36;;;5.28;;
69837;SDS011;57135;51.992;4.476;2023-07-29T06:00:14;5.05;;;4.98;;
69837;SDS011;57135;51.992;4.476;2023-07-29T06:02:39;5.19;;;5.07;;
69837;SDS011;57135;51.992;4.476;2023-07-29T06:05:08;5.14;;;5.06;;
69837;SDS011;57135;51.992;4.476;2023-07-29T06:07:33;4.87;;;4.82;;
69837;SDS011;57135;51.992;4.476;2023-07-29T06:09:59;4.78;;;4.73;;
69837;SDS011;57135;51.992;4.476;2023-07-29T06:12:25;5.55;;;5.47;;
69837;SDS011;57135;51.992;4.476;2023-07-29T06:14:51;5.52;;;5.43;;
69837;SDS011;57135;51.992;4.476;2023-07-29T06:17:17;5.62;;;5.56;;
69837;SDS011;57135;51.992;4.476;2023-07-29T06:19:43;5.27;;;5.23;;
69837;SDS011;57135;51.992;4.476;2023-07-29T06:22:09;5.11;;;5.09;;
69837;SDS011;57135;51.992;4.476;2023-07-29T06:24:35;4.63;;;4.61;;
69837;SDS011;57135;51.992;4.476;2023-07-29T06:27:00;4.92;;;4.91;;
69837;SDS011;57135;51.992;4.476;2023-07-29T06:29:26;4.70;;;4.67;;
69837;SDS011;57135;51.992;4.476;2023-07-29T06:31:51;4.69;;;4.62;;
69837;SDS011;57135;51.992;4.476;2023-07-29T06:34:17;4.29;;;4.25;;
69837;SDS011;57135;51.992;4.476;2023-07-29T06:36:43;4.46;;;4.41;;
69837;SDS011;57135;51.992;4.476;2023-07-29T06:39:09;4.06;;;4.03;;
69837;SDS011;57135;51.992;4.476;2023-07-29T06:41:34;4.16;;;4.10;;
69837;SDS011;57135;51.992;4.476;2023-07-29T06:44:00;4.03;;;3.94;;
69837;SDS011;57135;51.992;4.476;2023-07-29T06:46:25;3.64;;;3.54;;
69837;SDS011;57135;51.992;4.476;2023-07-29T06:48:51;3.65;;;3.56;;
69837;SDS011;57135;51.992;4.476;2023-07-29T06:51:16;3.30;;;3.22;;
69837;SDS011;57135;51.992;4.476;2023-07-29T06:53:42;3.35;;;3.28;;
69837;SDS011;57135;51.992;4.476;2023-07-29T06:56:07;3.03;;;2.94;;
69837;SDS011;57135;51.992;4.476;2023-07-29T06:58:33;3.21;;;3.12;;
69837;SDS011;57135;51.992;4.476;2023-07-29T07:00:59;3.46;;;3.36;;
69837;SDS011;57135;51.992;4.476;2023-07-29T07:03:24;3.77;;;3.74;;
69837;SDS011;57135;51.992;4.476;2023-07-29T07:05:50;3.25;;;3.25;;
69837;SDS011;57135;51.992;4.476;2023-07-29T07:08:16;3.21;;;3.18;;
69837;SDS011;57135;51.992;4.476;2023-07-29T07:10:41;2.94;;;2.88;;
69837;SDS011;57135;51.992;4.476;2023-07-29T07:13:07;2.85;;;2.75;;
69837;SDS011;57135;51.992;4.476;2023-07-29T07:15:32;2.60;;;2.50;;
69837;SDS011;57135;51.992;4.476;2023-07-29T07:17:58;2.59;;;2.49;;
69837;SDS011;57135;51.992;4.476;2023-07-29T07:20:23;2.41;;;2.31;;
69837;SDS011;57135;51.992;4.476;2023-07-29T07:22:49;2.61;;;2.48;;
69837;SDS011;57135;51.992;4.476;2023-07-29T07:25:14;3.01;;;2.85;;
69837;SDS011;57135;51.992;4.476;2023-07-29T07:27:40;2.72;;;2.57;;
69837;SDS011;57135;51.992;4.476;2023-07-29T07:30:05;2.59;;;2.46;;
69837;SDS011;57135;51.992;4.476;2023-07-29T07:32:31;2.38;;;2.27;;
69837;SDS011;57135;51.992;4.476;2023-07-29T07:34:57;2.50;;;2.41;;
69837;SDS011;57135;51.992;4.476;2023-07-29T07:37:22;2.36;;;2.23;;
69837;SDS011;57135;51.992;4.476;2023-07-29T07:39:48;2.62;;;2.43;;
69837;SDS011;57135;51.992;4.476;2023-07-29T07:42:13;2.42;;;2.20;;
69837;SDS011;57135;51.992;4.476;2023-07-29T07:44:39;2.38;;;2.19;;
69837;SDS011;57135;51.992;4.476;2023-07-29T07:47:04;2.51;;;2.31;;
69837;SDS011;57135;51.992;4.476;2023-07-29T07:49:30;2.52;;;2.35;;
69837;SDS011;57135;51.992;4.476;2023-07-29T07:51:55;2.63;;;2.43;;
69837;SDS011;57135;51.992;4.476;2023-07-29T07:54:21;2.77;;;2.54;;
69837;SDS011;57135;51.992;4.476;2023-07-29T07:56:46;2.42;;;2.26;;
69837;SDS011;57135;51.992;4.476;2023-07-29T07:59:11;2.31;;;2.14;;
69837;SDS011;57135;51.992;4.476;2023-07-29T08:01:38;2.65;;;2.51;;
69837;SDS011;57135;51.992;4.476;2023-07-29T08:04:04;2.42;;;2.28;;
69837;SDS011;57135;51.992;4.476;2023-07-29T08:06:30;2.76;;;2.55;;
69837;SDS011;57135;51.992;4.476;2023-07-29T08:08:56;2.36;;;2.23;;
69837;SDS011;57135;51.992;4.476;2023-07-29T08:11:22;2.34;;;2.24;;
69837;SDS011;57135;51.992;4.476;2023-07-29T08:13:48;2.28;;;2.19;;
69837;SDS011;57135;51.992;4.476;2023-07-29T08:16:13;2.33;;;2.25;;
69837;SDS011;57135;51.992;4.476;2023-07-29T08:18:39;2.36;;;2.28;;
69837;SDS011;57135;51.992;4.476;2023-07-29T08:21:04;2.48;;;2.37;;
69837;SDS011;57135;51.992;4.476;2023-07-29T08:23:31;2.48;;;2.34;;
69837;SDS011;57135;51.992;4.476;2023-07-29T08:25:58;2.47;;;2.36;;
69837;SDS011;57135;51.992;4.476;2023-07-29T08:28:37;2.61;;;2.52;;
69837;SDS011;57135;51.992;4.476;2023-07-29T08:31:04;2.35;;;2.29;;
69837;SDS011;57135;51.992;4.476;2023-07-29T08:33:30;2.51;;;2.44;;
69837;SDS011;57135;51.992;4.476;2023-07-29T08:35:56;2.40;;;2.33;;
69837;SDS011;57135;51.992;4.476;2023-07-29T08:38:22;2.82;;;2.71;;
69837;SDS011;57135;51.992;4.476;2023-07-29T08:41:35;2.88;;;2.76;;
69837;SDS011;57135;51.992;4.476;2023-07-29T08:43:39;2.82;;;2.72;;
69837;SDS011;57135;51.992;4.476;2023-07-29T08:46:09;3.13;;;3.05;;
69837;SDS011;57135;51.992;4.476;2023-07-29T08:48:42;3.27;;;3.24;;
69837;SDS011;57135;51.992;4.476;2023-07-29T08:51:12;3.07;;;3.06;;
69837;SDS011;57135;51.992;4.476;2023-07-29T08:53:38;3.27;;;3.26;;
69837;SDS011;57135;51.992;4.476;2023-07-29T08:56:05;3.58;;;3.58;;
69837;SDS011;57135;51.992;4.476;2023-07-29T08:58:31;3.60;;;3.60;;
69837;SDS011;57135;51.992;4.476;2023-07-29T09:00:57;3.70;;;3.69;;
69837;SDS011;57135;51.992;4.476;2023-07-29T09:03:23;3.82;;;3.82;;
69837;SDS011;57135;51.992;4.476;2023-07-29T09:05:48;3.98;;;3.98;;
69837;SDS011;57135;51.992;4.476;2023-07-29T09:08:14;4.03;;;4.03;;
69837;SDS011;57135;51.992;4.476;2023-07-29T09:10:39;5.24;;;5.24;;
69837;SDS011;57135;51.992;4.476;2023-07-29T09:13:06;5.31;;;5.31;;
69837;SDS011;57135;51.992;4.476;2023-07-29T09:15:33;5.18;;;5.18;;
69837;SDS011;57135;51.992;4.476;2023-07-29T09:18:00;4.68;;;4.68;;
69837;SDS011;57135;51.992;4.476;2023-07-29T09:20:40;4.93;;;4.93;;
69837;SDS011;57135;51.992;4.476;2023-07-29T09:23:07;4.74;;;4.74;;
69837;SDS011;57135;51.992;4.476;2023-07-29T09:25:34;4.51;;;4.51;;
69837;SDS011;57135;51.992;4.476;2023-07-29T09:28:01;4.74;;;4.74;;
69837;SDS011;57135;51.992;4.476;2023-07-29T09:30:27;4.41;;;4.41;;
69837;SDS011;57135;51.992;4.476;2023-07-29T09:32:56;4.12;;;4.12;;
69837;SDS011;57135;51.992;4.476;2023-07-29T09:35:22;3.94;;;3.94;;
69837;SDS011;57135;51.992;4.476;2023-07-29T09:37:49;3.69;;;3.69;;
69837;SDS011;57135;51.992;4.476;2023-07-29T09:40:16;3.18;;;3.18;;
69837;SDS011;57135;51.992;4.476;2023-07-29T09:42:49;3.32;;;3.32;;
69837;SDS011;57135;51.992;4.476;2023-07-29T09:45:23;3.32;;;3.32;;
69837;SDS011;57135;51.992;4.476;2023-07-29T09:47:51;3.61;;;3.61;;
69837;SDS011;57135;51.992;4.476;2023-07-29T09:50:17;3.62;;;3.62;;
69837;SDS011;57135;51.992;4.476;2023-07-29T09:52:43;2.67;;;2.67;;
69837;SDS011;57135;51.992;4.476;2023-07-29T09:55:12;2.42;;;2.42;;
69837;SDS011;57135;51.992;4.476;2023-07-29T09:57:39;2.59;;;2.59;;
69837;SDS011;57135;51.992;4.476;2023-07-29T10:00:05;2.59;;;2.59;;
69837;SDS011;57135;51.992;4.476;2023-07-29T10:02:40;2.74;;;2.74;;
69837;SDS011;57135;51.992;4.476;2023-07-29T10:05:07;2.75;;;2.75;;
69837;SDS011;57135;51.992;4.476;2023-07-29T10:07:36;3.12;;;3.12;;
69837;SDS011;57135;51.992;4.476;2023-07-29T10:10:03;2.59;;;2.57;;
69837;SDS011;57135;51.992;4.476;2023-07-29T10:12:31;2.40;;;2.38;;
69837;SDS011;57135;51.992;4.476;2023-07-29T10:15:04;2.38;;;2.37;;
69837;SDS011;57135;51.992;4.476;2023-07-29T10:17:33;2.10;;;2.09;;
69837;SDS011;57135;51.992;4.476;2023-07-29T10:20:01;2.23;;;2.22;;
69837;SDS011;57135;51.992;4.476;2023-07-29T10:22:33;1.91;;;1.87;;
69837;SDS011;57135;51.992;4.476;2023-07-29T10:25:05;1.43;;;1.39;;
69837;SDS011;57135;51.992;4.476;2023-07-29T10:27:35;1.30;;;1.27;;
69837;SDS011;57135;51.992;4.476;2023-07-29T10:30:08;1.13;;;1.10;;
69837;SDS011;57135;51.992;4.476;2023-07-29T10:32:35;1.00;;;0.96;;
69837;SDS011;57135;51.992;4.476;2023-07-29T10:35:02;0.96;;;0.93;;
69837;SDS011;57135;51.992;4.476;2023-07-29T10:37:27;1.20;;;1.13;;
69837;SDS011;57135;51.992;4.476;2023-07-29T10:39:53;1.32;;;1.23;;
69837;SDS011;57135;51.992;4.476;2023-07-29T10:42:20;1.29;;;1.21;;
69837;SDS011;57135;51.992;4.476;2023-07-29T10:44:46;1.53;;;1.45;;
69837;SDS011;57135;51.992;4.476;2023-07-29T10:47:22;1.51;;;1.44;;
69837;SDS011;57135;51.992;4.476;2023-07-29T10:49:56;1.40;;;1.34;;
69837;SDS011;57135;51.992;4.476;2023-07-29T10:52:30;2.01;;;1.96;;
69837;SDS011;57135;51.992;4.476;2023-07-29T10:54:59;2.02;;;2.01;;
69837;SDS011;57135;51.992;4.476;2023-07-29T10:57:35;2.27;;;2.26;;
69837;SDS011;57135;51.992;4.476;2023-07-29T11:00:03;2.86;;;2.86;;
69837;SDS011;57135;51.992;4.476;2023-07-29T11:02:36;3.16;;;3.16;;
69837;SDS011;57135;51.992;4.476;2023-07-29T11:05:07;3.52;;;3.52;;
69837;SDS011;57135;51.992;4.476;2023-07-29T11:07:43;3.98;;;3.98;;
69837;SDS011;57135;51.992;4.476;2023-07-29T11:10:12;3.88;;;3.88;;
69837;SDS011;57135;51.992;4.476;2023-07-29T11:12:49;4.12;;;4.12;;
69837;SDS011;57135;51.992;4.476;2023-07-29T11:15:20;4.16;;;4.16;;
69837;SDS011;57135;51.992;4.476;2023-07-29T11:20:21;3.90;;;3.90;;
69837;SDS011;57135;51.992;4.476;2023-07-29T11:22:48;3.66;;;3.66;;
69837;SDS011;57135;51.992;4.476;2023-07-29T11:25:15;3.34;;;3.34;;
69837;SDS011;57135;51.992;4.476;2023-07-29T11:27:43;3.31;;;3.31;;
69837;SDS011;57135;51.992;4.476;2023-07-29T11:30:10;3.34;;;3.34;;
69837;SDS011;57135;51.992;4.476;2023-07-29T11:32:37;3.44;;;3.44;;
69837;SDS011;57135;51.992;4.476;2023-07-29T11:35:14;3.40;;;3.40;;
69837;SDS011;57135;51.992;4.476;2023-07-29T11:37:43;3.49;;;3.49;;
69837;SDS011;57135;51.992;4.476;2023-07-29T11:40:19;4.02;;;4.02;;
69837;SDS011;57135;51.992;4.476;2023-07-29T11:42:46;3.73;;;3.73;;
69837;SDS011;57135;51.992;4.476;2023-07-29T11:45:13;4.05;;;4.05;;
69837;SDS011;57135;51.992;4.476;2023-07-29T11:47:39;4.11;;;4.11;;
69837;SDS011;57135;51.992;4.476;2023-07-29T11:50:06;4.09;;;4.09;;
69837;SDS011;57135;51.992;4.476;2023-07-29T11:52:34;4.35;;;4.35;;
69837;SDS011;57135;51.992;4.476;2023-07-29T11:55:03;4.73;;;4.73;;
69837;SDS011;57135;51.992;4.476;2023-07-29T11:57:33;4.98;;;4.98;;
69837;SDS011;57135;51.992;4.476;2023-07-29T12:00:03;4.35;;;4.35;;
69837;SDS011;57135;51.992;4.476;2023-07-29T12:02:31;3.54;;;3.54;;
69837;SDS011;57135;51.992;4.476;2023-07-29T12:05:01;3.45;;;3.45;;
69837;SDS011;57135;51.992;4.476;2023-07-29T12:07:29;3.10;;;3.10;;
69837;SDS011;57135;51.992;4.476;2023-07-29T12:09:55;2.86;;;2.86;;
69837;SDS011;57135;51.992;4.476;2023-07-29T12:12:22;3.02;;;3.02;;
69837;SDS011;57135;51.992;4.476;2023-07-29T12:14:48;2.97;;;2.97;;
69837;SDS011;57135;51.992;4.476;2023-07-29T12:17:13;3.20;;;3.20;;
69837;SDS011;57135;51.992;4.476;2023-07-29T12:19:39;2.98;;;2.98;;
69837;SDS011;57135;51.992;4.476;2023-07-29T12:22:06;3.03;;;3.03;;
69837;SDS011;57135;51.992;4.476;2023-07-29T12:24:34;2.64;;;2.64;;
69837;SDS011;57135;51.992;4.476;2023-07-29T12:27:01;2.70;;;2.70;;
69837;SDS011;57135;51.992;4.476;2023-07-29T12:29:27;2.48;;;2.48;;
69837;SDS011;57135;51.992;4.476;2023-07-29T12:32:00;2.57;;;2.57;;
69837;SDS011;57135;51.992;4.476;2023-07-29T12:34:27;2.48;;;2.48;;
69837;SDS011;57135;51.992;4.476;2023-07-29T12:36:54;2.67;;;2.67;;
69837;SDS011;57135;51.992;4.476;2023-07-29T12:39:22;2.43;;;2.43;;
69837;SDS011;57135;51.992;4.476;2023-07-29T12:41:56;2.59;;;2.59;;
69837;SDS011;57135;51.992;4.476;2023-07-29T12:44:23;2.26;;;2.26;;
69837;SDS011;57135;51.992;4.476;2023-07-29T12:46:50;2.19;;;2.19;;
69837;SDS011;57135;51.992;4.476;2023-07-29T12:49:17;3.03;;;3.03;;
69837;SDS011;57135;51.992;4.476;2023-07-29T12:51:42;3.01;;;3.01;;
69837;SDS011;57135;51.992;4.476;2023-07-29T12:54:09;2.98;;;2.98;;
69837;SDS011;57135;51.992;4.476;2023-07-29T12:56:35;3.08;;;3.08;;
69837;SDS011;57135;51.992;4.476;2023-07-29T12:59:01;3.02;;;3.02;;
69837;SDS011;57135;51.992;4.476;2023-07-29T13:01:26;2.94;;;2.94;;
69837;SDS011;57135;51.992;4.476;2023-07-29T13:03:53;2.71;;;2.71;;
69837;SDS011;57135;51.992;4.476;2023-07-29T13:06:19;3.00;;;2.98;;
69837;SDS011;57135;51.992;4.476;2023-07-29T13:08:45;3.01;;;3.00;;
69837;SDS011;57135;51.992;4.476;2023-07-29T13:11:13;2.95;;;2.94;;
69837;SDS011;57135;51.992;4.476;2023-07-29T13:13:42;3.07;;;3.05;;
69837;SDS011;57135;51.992;4.476;2023-07-29T13:16:08;2.31;;;2.31;;
69837;SDS011;57135;51.992;4.476;2023-07-29T13:18:33;2.27;;;2.27;;
69837;SDS011;57135;51.992;4.476;2023-07-29T13:20:59;2.26;;;2.25;;
69837;SDS011;57135;51.992;4.476;2023-07-29T13:23:28;2.25;;;2.25;;
69837;SDS011;57135;51.992;4.476;2023-07-29T13:25:55;2.22;;;2.21;;
69837;SDS011;57135;51.992;4.476;2023-07-29T13:28:21;2.65;;;2.63;;
69837;SDS011;57135;51.992;4.476;2023-07-29T13:30:46;2.71;;;2.66;;
69837;SDS011;57135;51.992;4.476;2023-07-29T13:33:12;2.35;;;2.31;;
69837;SDS011;57135;51.992;4.476;2023-07-29T13:35:37;2.23;;;2.21;;
69837;SDS011;57135;51.992;4.476;2023-07-29T13:38:03;1.99;;;1.98;;
69837;SDS011;57135;51.992;4.476;2023-07-29T13:40:28;2.20;;;2.18;;
69837;SDS011;57135;51.992;4.476;2023-07-29T13:42:54;2.18;;;2.15;;
69837;SDS011;57135;51.992;4.476;2023-07-29T13:45:20;2.25;;;2.22;;
69837;SDS011;57135;51.992;4.476;2023-07-29T13:47:46;2.63;;;2.63;;
69837;SDS011;57135;51.992;4.476;2023-07-29T13:50:11;2.52;;;2.50;;
69837;SDS011;57135;51.992;4.476;2023-07-29T13:52:37;2.33;;;2.32;;
69837;SDS011;57135;51.992;4.476;2023-07-29T13:55:03;2.58;;;2.57;;
69837;SDS011;57135;51.992;4.476;2023-07-29T13:57:37;2.40;;;2.40;;
69837;SDS011;57135;51.992;4.476;2023-07-29T14:00:06;2.35;;;2.34;;
69837;SDS011;57135;51.992;4.476;2023-07-29T14:02:33;2.43;;;2.42;;
69837;SDS011;57135;51.992;4.476;2023-07-29T14:04:59;2.36;;;2.33;;
69837;SDS011;57135;51.992;4.476;2023-07-29T14:07:27;2.33;;;2.32;;
69837;SDS011;57135;51.992;4.476;2023-07-29T14:09:53;2.28;;;2.27;;
69837;SDS011;57135;51.992;4.476;2023-07-29T14:12:18;2.52;;;2.50;;
69837;SDS011;57135;51.992;4.476;2023-07-29T14:14:44;2.34;;;2.32;;
69837;SDS011;57135;51.992;4.476;2023-07-29T14:17:09;2.03;;;2.02;;
69837;SDS011;57135;51.992;4.476;2023-07-29T14:19:35;2.25;;;2.24;;
69837;SDS011;57135;51.992;4.476;2023-07-29T14:22:02;2.47;;;2.45;;
69837;SDS011;57135;51.992;4.476;2023-07-29T14:24:27;2.07;;;2.06;;
69837;SDS011;57135;51.992;4.476;2023-07-29T14:26:53;1.83;;;1.83;;
69837;SDS011;57135;51.992;4.476;2023-07-29T14:29:18;1.97;;;1.97;;
69837;SDS011;57135;51.992;4.476;2023-07-29T14:31:44;2.01;;;2.00;;
69837;SDS011;57135;51.992;4.476;2023-07-29T14:34:11;2.09;;;2.07;;
69837;SDS011;57135;51.992;4.476;2023-07-29T14:36:37;1.99;;;1.99;;
69837;SDS011;57135;51.992;4.476;2023-07-29T14:39:02;2.15;;;2.15;;
69837;SDS011;57135;51.992;4.476;2023-07-29T14:41:28;2.33;;;2.33;;
69837;SDS011;57135;51.992;4.476;2023-07-29T14:43:55;2.45;;;2.45;;
69837;SDS011;57135;51.992;4.476;2023-07-29T14:46:20;2.70;;;2.70;;
69837;SDS011;57135;51.992;4.476;2023-07-29T14:48:46;2.50;;;2.50;;
69837;SDS011;57135;51.992;4.476;2023-07-29T14:51:12;2.47;;;2.47;;
69837;SDS011;57135;51.992;4.476;2023-07-29T14:53:38;2.65;;;2.65;;
69837;SDS011;57135;51.992;4.476;2023-07-29T14:56:03;2.49;;;2.49;;
69837;SDS011;57135;51.992;4.476;2023-07-29T14:58:29;2.50;;;2.50;;